createdAt,value
2022-07-29T00:01:03.900Z,59.90
2022-07-29T00:03:30.969Z,60.10
2022-07-29T00:05:57.966Z,60.10
2022-07-29T00:08:25.489Z,60.10
2022-07-29T00:10:52.630Z,60.00
2022-07-29T00:13:32.108Z,60.10
2022-07-29T00:16:03.707Z,60.20
2022-07-29T00:18:32.245Z,60.20
2022-07-29T00:20:59.219Z,60.30
2022-07-29T00:23:30.640Z,60.50
2022-07-29T00:25:58.514Z,60.90
2022-07-29T00:28:25.490Z,61.00
2022-07-29T00:30:52.555Z,61.00
2022-07-29T00:33:19.545Z,61.10
2022-07-29T00:35:46.447Z,61.30
2022-07-29T00:38:14.814Z,61.30
2022-07-29T00:40:43.202Z,61.00
2022-07-29T00:43:11.006Z,61.20
2022-07-29T00:45:38.139Z,61.40
2022-07-29T00:48:05.989Z,61.30
2022-07-29T00:50:38.867Z,61.00
2022-07-29T00:53:07.066Z,61.00
2022-07-29T00:55:34.197Z,61.30
2022-07-29T00:58:01.549Z,61.40
2022-07-29T01:00:29.072Z,61.30
2022-07-29T01:02:56.171Z,61.50
2022-07-29T01:05:24.421Z,61.60
2022-07-29T01:07:52.536Z,61.50
2022-07-29T01:10:20.498Z,61.70
2022-07-29T01:12:48.171Z,62.00
2022-07-29T01:15:15.204Z,62.00
2022-07-29T01:17:52.768Z,62.20
2022-07-29T01:20:20.663Z,62.30
2022-07-29T01:22:57.336Z,62.30
2022-07-29T01:25:27.085Z,62.50
2022-07-29T01:28:18.141Z,62.60
2022-07-29T01:30:45.317Z,62.70
2022-07-29T01:33:32.913Z,62.90
2022-07-29T01:36:00.601Z,62.80
2022-07-29T01:38:27.565Z,62.80
2022-07-29T01:40:55.812Z,62.90
2022-07-29T01:43:25.140Z,63.00
2022-07-29T01:45:52.898Z,62.90
2022-07-29T01:48:21.701Z,62.80
2022-07-29T01:50:49.905Z,62.90
2022-07-29T01:53:18.551Z,63.00
2022-07-29T01:55:45.746Z,63.30
2022-07-29T01:58:12.727Z,63.40
2022-07-29T02:00:40.273Z,63.40
2022-07-29T02:03:12.374Z,63.90
2022-07-29T02:05:39.638Z,63.80
2022-07-29T02:08:06.622Z,63.80
2022-07-29T02:10:34.210Z,64.20
2022-07-29T02:13:01.305Z,64.60
2022-07-29T02:15:28.945Z,65.30
2022-07-29T02:18:10.539Z,64.50
2022-07-29T02:20:37.506Z,64.20
2022-07-29T02:23:04.442Z,63.90
2022-07-29T02:25:36.895Z,64.10
2022-07-29T02:28:06.114Z,64.10
2022-07-29T02:30:33.198Z,64.00
2022-07-29T02:33:00.085Z,64.10
2022-07-29T02:35:27.043Z,64.20
2022-07-29T02:38:18.665Z,64.30
2022-07-29T02:40:46.064Z,64.60
2022-07-29T02:43:12.975Z,64.60
2022-07-29T02:45:39.927Z,64.60
2022-07-29T02:48:09.075Z,64.70
2022-07-29T02:50:36.869Z,64.70
2022-07-29T02:53:23.698Z,64.60
2022-07-29T02:55:53.172Z,64.60
2022-07-29T02:58:24.230Z,64.60
2022-07-29T03:00:51.319Z,64.90
2022-07-29T03:03:18.687Z,65.10
2022-07-29T03:05:45.731Z,65.30
2022-07-29T03:08:12.828Z,65.60
2022-07-29T03:10:40.479Z,65.60
2022-07-29T03:13:07.609Z,65.60
2022-07-29T03:15:34.883Z,65.70
2022-07-29T03:18:01.862Z,65.60
2022-07-29T03:20:28.798Z,65.50
2022-07-29T03:22:55.923Z,65.70
2022-07-29T03:25:22.963Z,65.70
2022-07-29T03:27:49.866Z,65.70
2022-07-29T03:30:18.449Z,65.70
2022-07-29T03:32:49.002Z,65.70
2022-07-29T03:35:20.614Z,65.70
2022-07-29T03:37:47.706Z,65.60
2022-07-29T03:40:16.105Z,65.30
2022-07-29T03:42:43.086Z,65.30
2022-07-29T03:45:11.730Z,65.70
2022-07-29T03:47:50.193Z,66.00
2022-07-29T03:50:20.552Z,66.00
2022-07-29T03:52:47.840Z,66.10
2022-07-29T03:55:15.896Z,66.00
2022-07-29T03:57:43.074Z,66.00
2022-07-29T04:00:10.256Z,65.80
2022-07-29T04:02:37.873Z,65.70
2022-07-29T04:05:06.627Z,65.80
2022-07-29T04:07:34.214Z,65.60
2022-07-29T04:10:01.743Z,65.70
2022-07-29T04:12:28.762Z,65.60
2022-07-29T04:14:55.670Z,65.80
2022-07-29T04:17:22.624Z,65.60
2022-07-29T04:19:51.759Z,65.60
2022-07-29T04:22:18.764Z,65.20
2022-07-29T04:24:45.973Z,64.90
2022-07-29T04:27:12.939Z,64.70
2022-07-29T04:29:56.371Z,64.50
2022-07-29T04:32:24.907Z,64.40
2022-07-29T04:34:53.429Z,64.50
2022-07-29T04:37:20.465Z,64.60
2022-07-29T04:39:47.511Z,64.60
2022-07-29T04:42:14.563Z,64.40
2022-07-29T04:44:42.954Z,64.10
2022-07-29T04:47:10.591Z,64.10
2022-07-29T04:49:40.905Z,64.40
2022-07-29T04:52:07.991Z,63.50
2022-07-29T04:54:35.114Z,63.40
2022-07-29T04:57:02.074Z,63.60
2022-07-29T04:59:29.600Z,63.80
2022-07-29T05:01:56.561Z,63.90
2022-07-29T05:04:24.244Z,63.70
2022-07-29T05:06:51.156Z,63.50
2022-07-29T05:09:18.166Z,63.40
2022-07-29T05:11:45.250Z,63.20
2022-07-29T05:14:12.222Z,62.90
2022-07-29T05:16:41.214Z,62.80
2022-07-29T05:19:12.250Z,62.70
2022-07-29T05:21:41.843Z,62.60
2022-07-29T05:24:09.651Z,62.80
2022-07-29T05:26:36.875Z,62.80
2022-07-29T05:29:04.048Z,62.60
2022-07-29T05:31:31.253Z,63.00
2022-07-29T05:33:58.250Z,62.50
2022-07-29T05:36:26.170Z,62.50
2022-07-29T05:38:56.097Z,62.30
2022-07-29T05:41:23.454Z,62.10
2022-07-29T05:43:50.352Z,61.70
2022-07-29T05:46:17.460Z,61.50
2022-07-29T05:48:44.553Z,61.50
2022-07-29T05:51:11.680Z,61.60
2022-07-29T05:53:39.920Z,61.50
2022-07-29T05:56:07.272Z,61.40
2022-07-29T05:58:34.809Z,61.20
2022-07-29T06:01:01.960Z,60.80
2022-07-29T06:03:29.090Z,60.80
2022-07-29T06:05:57.033Z,60.70
2022-07-29T06:08:24.875Z,60.60
2022-07-29T06:10:52.381Z,60.50
2022-07-29T06:13:19.334Z,60.10
2022-07-29T06:15:46.242Z,60.70
2022-07-29T06:18:14.460Z,59.70
2022-07-29T06:20:42.317Z,59.60
2022-07-29T06:23:09.307Z,59.50
2022-07-29T06:25:37.828Z,59.00
2022-07-29T06:28:07.867Z,58.60
2022-07-29T06:30:35.076Z,58.20
2022-07-29T06:33:03.114Z,58.10
2022-07-29T06:35:41.769Z,57.60
2022-07-29T06:38:30.022Z,56.40
2022-07-29T06:41:11.221Z,56.10
2022-07-29T06:43:50.842Z,56.30
2022-07-29T06:46:21.474Z,56.60
2022-07-29T06:48:51.681Z,56.20
2022-07-29T06:51:22.390Z,56.20
2022-07-29T06:54:01.653Z,55.70
2022-07-29T06:56:31.269Z,55.50
2022-07-29T06:58:58.186Z,55.40
2022-07-29T07:01:25.402Z,55.10
2022-07-29T07:03:52.523Z,54.60
2022-07-29T07:06:19.572Z,54.60
2022-07-29T07:08:46.455Z,54.10
2022-07-29T07:11:13.420Z,53.90
2022-07-29T07:13:42.023Z,53.30
2022-07-29T07:16:09.086Z,53.40
2022-07-29T07:18:37.023Z,54.00
2022-07-29T07:21:06.105Z,53.00
2022-07-29T07:23:33.102Z,53.00
2022-07-29T07:26:00.025Z,52.70
2022-07-29T07:28:26.929Z,51.60
2022-07-29T07:30:55.982Z,51.70
2022-07-29T07:33:22.916Z,52.10
2022-07-29T07:35:49.905Z,51.60
2022-07-29T07:38:16.839Z,51.10
2022-07-29T07:40:44.109Z,50.60
2022-07-29T07:43:11.134Z,50.10
2022-07-29T07:45:38.738Z,50.40
2022-07-29T07:48:06.002Z,50.30
2022-07-29T07:50:32.978Z,50.30
2022-07-29T07:53:00.703Z,50.40
2022-07-29T07:55:28.248Z,50.10
2022-07-29T07:57:56.415Z,48.70
2022-07-29T08:00:23.866Z,48.30
2022-07-29T08:02:51.417Z,48.60
2022-07-29T08:05:18.571Z,48.60
2022-07-29T08:07:46.345Z,49.00
2022-07-29T08:10:13.834Z,49.40
2022-07-29T08:12:41.788Z,48.90
2022-07-29T08:15:08.997Z,48.70
2022-07-29T08:17:35.990Z,48.30
2022-07-29T08:20:03.137Z,48.40
2022-07-29T08:22:30.082Z,48.30
2022-07-29T08:24:57.366Z,48.30
2022-07-29T08:27:43.021Z,47.80
2022-07-29T08:30:11.497Z,47.70
2022-07-29T08:32:54.993Z,46.90
2022-07-29T08:35:23.173Z,45.80
2022-07-29T08:37:50.277Z,45.70
2022-07-29T08:40:17.400Z,45.90
2022-07-29T08:42:44.531Z,45.40
2022-07-29T08:45:11.710Z,45.30
2022-07-29T08:47:40.961Z,44.50
2022-07-29T08:50:08.530Z,44.70
2022-07-29T08:52:37.197Z,44.70
2022-07-29T08:55:04.723Z,44.80
2022-07-29T08:57:31.694Z,44.30
2022-07-29T09:00:04.945Z,44.00
2022-07-29T09:02:36.779Z,44.20
2022-07-29T09:05:04.152Z,44.50
2022-07-29T09:07:34.577Z,43.60
2022-07-29T09:10:03.526Z,43.60
2022-07-29T09:12:34.808Z,43.20
2022-07-29T09:15:05.808Z,42.90
2022-07-29T09:17:43.106Z,41.50
2022-07-29T09:20:11.373Z,41.10
2022-07-29T09:22:41.812Z,41.20
2022-07-29T09:25:09.076Z,40.80
2022-07-29T09:27:36.002Z,41.10
2022-07-29T09:30:07.668Z,40.60
2022-07-29T09:32:34.841Z,40.60
2022-07-29T09:35:20.940Z,40.30
2022-07-29T09:37:47.979Z,40.10
2022-07-29T09:40:15.227Z,39.90
2022-07-29T09:42:43.270Z,39.50
2022-07-29T09:45:10.281Z,39.70
2022-07-29T09:47:46.210Z,39.10
2022-07-29T09:50:13.156Z,39.00
2022-07-29T09:52:47.168Z,38.60
2022-07-29T09:55:18.109Z,38.90
2022-07-29T09:57:45.880Z,38.20
2022-07-29T10:00:12.983Z,38.40
2022-07-29T10:02:40.491Z,37.80
2022-07-29T10:05:08.616Z,38.10
2022-07-29T10:07:46.802Z,38.40
2022-07-29T10:10:22.374Z,37.80
2022-07-29T10:12:49.911Z,37.00
2022-07-29T10:15:17.042Z,36.80
2022-07-29T10:17:44.084Z,37.30
2022-07-29T10:20:16.114Z,36.30
2022-07-29T10:22:52.892Z,36.40
2022-07-29T10:25:22.018Z,36.50
2022-07-29T10:27:49.408Z,36.70
2022-07-29T10:30:16.744Z,36.90
2022-07-29T10:32:53.982Z,36.40
2022-07-29T10:35:40.084Z,36.30
2022-07-29T10:38:25.001Z,36.10
2022-07-29T10:41:29.008Z,36.60
2022-07-29T10:44:19.309Z,36.30
2022-07-29T10:46:49.887Z,35.90
2022-07-29T10:49:19.623Z,36.00
2022-07-29T10:51:59.476Z,35.90
2022-07-29T10:54:52.778Z,35.90
2022-07-29T10:57:21.531Z,35.70
2022-07-29T11:00:02.291Z,35.40
2022-07-29T11:02:41.740Z,36.20
2022-07-29T11:05:11.198Z,36.00
2022-07-29T11:07:46.334Z,35.10
2022-07-29T11:10:14.070Z,35.10
2022-07-29T11:12:44.517Z,35.40
2022-07-29T11:15:28.566Z,35.20
2022-07-29T11:17:59.369Z,35.40
2022-07-29T11:20:43.137Z,34.60
2022-07-29T11:23:20.641Z,33.60
2022-07-29T11:26:09.027Z,33.90
2022-07-29T11:28:36.851Z,34.20
2022-07-29T11:31:07.045Z,33.90
2022-07-29T11:33:54.731Z,34.30
2022-07-29T11:36:28.183Z,34.00
2022-07-29T11:39:15.379Z,33.70
2022-07-29T11:41:42.293Z,33.80
2022-07-29T11:44:09.773Z,33.70
2022-07-29T11:46:42.791Z,33.80
2022-07-29T11:49:11.467Z,34.10
2022-07-29T11:51:48.337Z,33.60
2022-07-29T11:54:27.555Z,33.50
2022-07-29T11:57:12.387Z,32.80
2022-07-29T11:59:43.550Z,33.30
2022-07-29T12:02:36.655Z,32.90
2022-07-29T12:04:58.078Z,33.10
2022-07-29T12:07:34.737Z,33.20
2022-07-29T12:10:04.827Z,33.20
2022-07-29T12:12:33.575Z,33.80
2022-07-29T12:15:11.541Z,33.70
2022-07-29T12:17:40.404Z,33.90
2022-07-29T12:20:07.650Z,33.00
2022-07-29T12:22:39.199Z,33.10
2022-07-29T12:25:32.528Z,33.40
2022-07-29T12:28:00.866Z,32.70
2022-07-29T12:30:38.260Z,32.40
2022-07-29T12:33:10.977Z,32.80
2022-07-29T12:35:37.887Z,32.90
2022-07-29T12:38:07.333Z,32.70
2022-07-29T12:40:34.260Z,33.40
2022-07-29T12:43:14.699Z,33.80
2022-07-29T12:46:01.497Z,33.40
2022-07-29T12:48:38.965Z,32.70
2022-07-29T12:51:07.177Z,33.30
2022-07-29T12:53:34.186Z,34.00
2022-07-29T12:56:07.989Z,33.00
2022-07-29T12:58:43.817Z,33.60
2022-07-29T13:01:19.268Z,33.30
2022-07-29T13:03:56.679Z,33.20
2022-07-29T13:06:34.463Z,33.40
2022-07-29T13:09:02.109Z,32.80
2022-07-29T13:11:29.960Z,33.50
2022-07-29T13:14:06.528Z,33.70
2022-07-29T13:16:34.129Z,32.70
2022-07-29T13:19:11.060Z,33.90
2022-07-29T13:21:38.591Z,33.50
2022-07-29T13:24:06.993Z,33.10
2022-07-29T13:26:34.024Z,33.00
2022-07-29T13:29:01.058Z,33.20
2022-07-29T13:31:28.012Z,32.00
2022-07-29T13:33:54.914Z,31.70
2022-07-29T13:36:21.848Z,31.90
2022-07-29T13:38:51.053Z,31.50
2022-07-29T13:41:17.946Z,32.20
2022-07-29T13:43:47.979Z,32.40
2022-07-29T13:46:17.410Z,32.80
2022-07-29T13:48:46.718Z,33.00
2022-07-29T13:51:16.023Z,33.20
2022-07-29T13:53:42.888Z,33.50
2022-07-29T13:56:09.834Z,32.90
2022-07-29T13:58:37.228Z,33.50
2022-07-29T14:01:04.331Z,33.60
2022-07-29T14:03:31.632Z,33.20
2022-07-29T14:06:01.431Z,33.20
2022-07-29T14:08:28.481Z,33.30
2022-07-29T14:10:55.449Z,33.20
2022-07-29T14:13:25.313Z,32.60
2022-07-29T14:15:53.347Z,32.40
2022-07-29T14:18:20.290Z,33.10
2022-07-29T14:20:47.163Z,32.90
2022-07-29T14:23:14.433Z,32.50
2022-07-29T14:25:43.355Z,32.10
2022-07-29T14:28:11.620Z,32.20
2022-07-29T14:30:41.639Z,32.50
2022-07-29T14:33:09.239Z,32.10
2022-07-29T14:35:36.186Z,32.20
2022-07-29T14:38:03.226Z,31.60
2022-07-29T14:40:30.213Z,32.20
2022-07-29T14:42:57.095Z,32.40
2022-07-29T14:45:24.080Z,32.00
2022-07-29T14:47:51.899Z,32.10
2022-07-29T14:50:31.443Z,32.40
2022-07-29T14:52:59.498Z,32.60
2022-07-29T14:55:26.482Z,33.10
2022-07-29T14:57:57.962Z,32.90
2022-07-29T15:00:33.456Z,32.60
2022-07-29T15:03:02.748Z,32.60
2022-07-29T15:05:30.541Z,32.60
2022-07-29T15:07:57.616Z,32.40
2022-07-29T15:10:24.837Z,32.50
2022-07-29T15:12:51.914Z,32.60
2022-07-29T15:15:18.866Z,32.50
2022-07-29T15:17:46.663Z,32.20
2022-07-29T15:20:13.605Z,33.00
2022-07-29T15:22:42.360Z,32.90
2022-07-29T15:25:10.796Z,33.20
2022-07-29T15:27:37.925Z,33.10
2022-07-29T15:30:05.034Z,32.70
2022-07-29T15:32:31.932Z,33.00
2022-07-29T15:34:58.863Z,33.30
2022-07-29T15:37:26.079Z,33.70
2022-07-29T15:39:55.053Z,33.30
2022-07-29T15:42:25.211Z,33.30
2022-07-29T15:44:52.205Z,33.80
2022-07-29T15:47:19.200Z,33.90
2022-07-29T15:49:47.828Z,33.80
2022-07-29T15:52:17.119Z,33.80
2022-07-29T15:54:44.071Z,33.90
2022-07-29T15:57:10.969Z,33.80
2022-07-29T15:59:37.907Z,34.30
2022-07-29T16:02:05.230Z,34.50
2022-07-29T16:04:32.189Z,34.10
2022-07-29T16:06:59.512Z,34.40
2022-07-29T16:09:26.850Z,34.50
2022-07-29T16:11:54.210Z,34.80
2022-07-29T16:14:21.231Z,35.30
2022-07-29T16:16:48.673Z,35.60
2022-07-29T16:19:15.679Z,36.20
2022-07-29T16:21:42.638Z,36.20
2022-07-29T16:24:09.489Z,36.50
2022-07-29T16:26:36.478Z,36.20
2022-07-29T16:29:04.152Z,35.60
2022-07-29T16:31:31.412Z,36.10
2022-07-29T16:33:58.363Z,36.40
2022-07-29T16:36:25.268Z,36.40
2022-07-29T16:38:52.321Z,36.40
2022-07-29T16:41:19.293Z,36.60
2022-07-29T16:43:46.250Z,36.60
2022-07-29T16:46:15.658Z,36.70
2022-07-29T16:48:46.020Z,36.80
2022-07-29T16:51:14.559Z,37.00
2022-07-29T16:53:41.918Z,37.20
2022-07-29T16:56:12.700Z,37.10
2022-07-29T16:58:43.572Z,37.30
2022-07-29T17:01:11.619Z,37.50
2022-07-29T17:04:01.540Z,37.70
2022-07-29T17:06:29.653Z,37.60
2022-07-29T17:08:56.870Z,38.00
2022-07-29T17:11:53.171Z,38.00
2022-07-29T17:14:10.922Z,38.20
2022-07-29T17:16:37.982Z,38.50
2022-07-29T17:19:05.071Z,38.70
2022-07-29T17:21:32.331Z,38.40
2022-07-29T17:23:59.517Z,38.70
2022-07-29T17:26:28.186Z,38.70
2022-07-29T17:28:55.538Z,39.00
2022-07-29T17:31:23.940Z,39.10
2022-07-29T17:33:50.906Z,39.20
2022-07-29T17:36:23.807Z,39.70
2022-07-29T17:38:51.456Z,39.70
2022-07-29T17:41:18.430Z,40.00
2022-07-29T17:43:45.315Z,40.00
2022-07-29T17:46:12.296Z,40.00
2022-07-29T17:48:39.350Z,40.20
2022-07-29T17:51:06.325Z,40.50
2022-07-29T17:53:35.324Z,40.60
2022-07-29T17:56:02.433Z,40.60
2022-07-29T17:58:29.242Z,40.80
2022-07-29T18:00:56.268Z,41.20
2022-07-29T18:03:23.754Z,41.70
2022-07-29T18:05:51.027Z,42.10
2022-07-29T18:08:18.038Z,42.40
2022-07-29T18:10:46.174Z,42.70
2022-07-29T18:13:13.229Z,42.90
2022-07-29T18:15:40.831Z,43.10
2022-07-29T18:18:07.843Z,43.40
2022-07-29T18:20:35.116Z,43.70
2022-07-29T18:23:02.031Z,43.70
2022-07-29T18:25:29.331Z,43.80
2022-07-29T18:28:00.008Z,43.70
2022-07-29T18:30:27.927Z,43.90
2022-07-29T18:33:19.676Z,44.10
2022-07-29T18:35:41.799Z,44.30
2022-07-29T18:38:08.782Z,44.60
2022-07-29T18:40:35.842Z,44.60
2022-07-29T18:43:02.887Z,44.60
2022-07-29T18:45:29.827Z,44.80
2022-07-29T18:47:59.686Z,45.30
2022-07-29T18:50:29.252Z,45.40
2022-07-29T18:52:58.816Z,45.40
2022-07-29T18:55:26.135Z,45.40
2022-07-29T18:57:56.085Z,45.70
2022-07-29T19:00:24.036Z,46.20
2022-07-29T19:02:53.933Z,46.30
2022-07-29T19:05:20.951Z,46.40
2022-07-29T19:07:48.075Z,46.50
2022-07-29T19:10:15.027Z,46.50
2022-07-29T19:12:42.568Z,46.70
2022-07-29T19:15:10.899Z,46.90
2022-07-29T19:17:38.842Z,47.00
2022-07-29T19:20:06.280Z,47.00
2022-07-29T19:22:34.327Z,47.20
2022-07-29T19:25:01.246Z,47.30
2022-07-29T19:27:28.142Z,47.20
2022-07-29T19:29:59.054Z,47.40
2022-07-29T19:32:26.309Z,47.70
2022-07-29T19:35:11.566Z,47.90
2022-07-29T19:37:40.583Z,48.20
2022-07-29T19:40:07.711Z,48.30
2022-07-29T19:42:34.605Z,48.50
2022-07-29T19:45:01.700Z,48.50
2022-07-29T19:47:28.589Z,48.50
2022-07-29T19:49:55.511Z,48.50
2022-07-29T19:52:22.409Z,48.60
2022-07-29T19:54:49.302Z,48.80
2022-07-29T19:57:16.240Z,49.00
2022-07-29T19:59:43.167Z,49.10
2022-07-29T20:02:12.529Z,49.30
2022-07-29T20:04:39.519Z,49.50
2022-07-29T20:07:06.654Z,49.90
2022-07-29T20:09:33.565Z,50.00
2022-07-29T20:12:02.484Z,50.20
2022-07-29T20:14:29.441Z,50.30
2022-07-29T20:16:56.394Z,50.40
2022-07-29T20:19:23.607Z,50.40
2022-07-29T20:21:51.623Z,50.40
2022-07-29T20:24:18.970Z,50.40
2022-07-29T20:26:45.929Z,50.60
2022-07-29T20:29:13.024Z,50.80
2022-07-29T20:31:39.909Z,50.90
2022-07-29T20:34:06.960Z,51.10
2022-07-29T20:36:33.881Z,51.20
2022-07-29T20:39:00.725Z,51.20
2022-07-29T20:41:29.193Z,51.50
2022-07-29T20:43:56.291Z,51.80
2022-07-29T20:46:23.342Z,51.80
2022-07-29T20:48:50.465Z,51.90
2022-07-29T20:51:17.456Z,52.30
2022-07-29T20:53:44.461Z,52.70
2022-07-29T20:56:12.616Z,52.60
2022-07-29T20:58:41.870Z,52.60
2022-07-29T21:01:09.791Z,52.60
2022-07-29T21:03:36.741Z,52.70
2022-07-29T21:06:03.715Z,53.30
2022-07-29T21:08:30.661Z,52.80
2022-07-29T21:10:57.915Z,52.90
2022-07-29T21:13:25.762Z,52.90
2022-07-29T21:15:55.558Z,52.90
2022-07-29T21:18:32.416Z,52.90
2022-07-29T21:21:03.744Z,52.80
2022-07-29T21:23:30.819Z,53.00
2022-07-29T21:25:58.120Z,52.90
2022-07-29T21:28:30.993Z,52.80
2022-07-29T21:30:59.263Z,53.10
2022-07-29T21:33:29.927Z,53.60
2022-07-29T21:36:15.390Z,54.10
2022-07-29T21:38:43.898Z,54.00
2022-07-29T21:41:12.723Z,53.80
2022-07-29T21:43:41.794Z,53.90
2022-07-29T21:46:09.179Z,54.20
2022-07-29T21:48:36.215Z,54.50
2022-07-29T21:51:03.234Z,54.30
2022-07-29T21:53:30.717Z,54.30
2022-07-29T21:55:57.832Z,54.10
2022-07-29T21:58:26.229Z,54.10
2022-07-29T22:00:54.087Z,54.10
2022-07-29T22:03:21.162Z,54.10
2022-07-29T22:05:48.051Z,54.30
2022-07-29T22:08:15.025Z,54.40
2022-07-29T22:10:43.247Z,54.40
2022-07-29T22:13:10.575Z,54.50
2022-07-29T22:15:37.547Z,54.50
2022-07-29T22:18:04.550Z,54.50
2022-07-29T22:20:31.414Z,54.60
2022-07-29T22:22:58.301Z,54.80
2022-07-29T22:25:27.161Z,55.00
2022-07-29T22:27:54.130Z,54.80
2022-07-29T22:30:21.093Z,54.70
2022-07-29T22:32:49.779Z,55.60
2022-07-29T22:35:16.900Z,55.00
2022-07-29T22:37:43.911Z,55.00
2022-07-29T22:40:11.056Z,55.20
2022-07-29T22:42:40.870Z,55.30
2022-07-29T22:45:08.715Z,55.30
2022-07-29T22:47:38.724Z,55.30
2022-07-29T22:50:13.757Z,55.50
2022-07-29T22:52:40.593Z,55.50
2022-07-29T22:55:07.795Z,55.50
2022-07-29T22:57:34.761Z,55.50
2022-07-29T23:00:02.609Z,55.60
2022-07-29T23:02:29.654Z,55.40
2022-07-29T23:05:00.920Z,55.40
2022-07-29T23:07:27.842Z,55.70
2022-07-29T23:09:56.140Z,55.80
2022-07-29T23:12:23.154Z,56.30
2022-07-29T23:14:50.090Z,55.80
2022-07-29T23:17:17.104Z,55.80
2022-07-29T23:19:44.045Z,55.90
2022-07-29T23:22:11.675Z,56.00
2022-07-29T23:24:38.640Z,55.90
2022-07-29T23:27:09.784Z,55.80
2022-07-29T23:29:36.997Z,55.90
2022-07-29T23:32:04.830Z,56.10
2022-07-29T23:34:31.995Z,56.20
2022-07-29T23:36:59.204Z,56.30
2022-07-29T23:39:26.293Z,56.50
2022-07-29T23:41:53.464Z,56.70
2022-07-29T23:44:20.568Z,56.80
2022-07-29T23:46:47.566Z,56.80
2022-07-29T23:49:14.823Z,57.00
2022-07-29T23:51:41.774Z,57.30
2022-07-29T23:54:08.737Z,57.30
2022-07-29T23:56:35.664Z,57.30
2022-07-29T23:59:05.645Z,57.20
